Collinsville, Texas
Current Conditions -  °F | °C
As of 8:55 PM on Friday 19 Dec 2014 (Local Time) from KGYI Reporting Station
Overcast Overcast  
Wind Chill: 45°   Ceiling: 600
Heat Index: 45°   Visibility: 7mi
Dew Point: 44°   Wind: 0mph
Humidity: 98%   Direction: NA
Pressure: 30.23"   Gusts: NA
Location:  33.56°N, 96.91°W
Report Text: KGYI 200255Z AUTO 00000KT 7SM OVC006 07/07 A3023 RMK AO2 T00700067
Loading
Personal Weather Stations






























Interactive Weather Map New forecast layout! Learn more

10-Day Weather Forecast

Advertisements
Track Severe Weather on mobile